Irmo, South Carolina
Current Conditions -  °F | °C
As of 4:56 PM on Thursday 27 Nov 2014 (Local Time) from KCAE Reporting Station
Scattered Clouds Scattered Clouds  
Wind Chill: 52°   Ceiling: Unl
Heat Index: 52°   Visibility: 10mi
Dew Point: 29°   Wind: 10mph
Humidity: 41%   Direction: 270°W
Pressure: 30.17"   Gusts: NA
Location:  34.09°N, 81.18°W
Report Text: KCAE 272156Z 27009KT 10SM SCT065 11/M02 A3017 RMK AO2 SLP215 T01111017
Loading
Personal Weather Stations






























Interactive Weather Map New forecast layout! Learn more

10-Day Weather Forecast

Advertisements
Track Severe Weather on mobile